sensor_id;sensor_type;location;lat;lon;timestamp;temperature;humidity
14475;DHT22;7323;50.848;4.334;2022-12-11T00:00:40;3.00;98.50
14475;DHT22;7323;50.848;4.334;2022-12-11T00:03:06;2.90;99.10
14475;DHT22;7323;50.848;4.334;2022-12-11T00:05:32;3.10;99.70
14475;DHT22;7323;50.848;4.334;2022-12-11T00:07:58;3.00;99.20
14475;DHT22;7323;50.848;4.334;2022-12-11T00:10:24;3.10;98.70
14475;DHT22;7323;50.848;4.334;2022-12-11T00:12:50;3.10;98.90
14475;DHT22;7323;50.848;4.334;2022-12-11T00:15:16;3.00;98.90
14475;DHT22;7323;50.848;4.334;2022-12-11T00:17:41;3.00;99.70
14475;DHT22;7323;50.848;4.334;2022-12-11T00:20:08;3.00;99.50
14475;DHT22;7323;50.848;4.334;2022-12-11T00:22:33;3.10;98.60
14475;DHT22;7323;50.848;4.334;2022-12-11T00:24:59;3.10;98.20
14475;DHT22;7323;50.848;4.334;2022-12-11T00:27:25;3.20;98.50
14475;DHT22;7323;50.848;4.334;2022-12-11T00:29:50;3.20;97.40
14475;DHT22;7323;50.848;4.334;2022-12-11T00:32:16;3.20;97.70
14475;DHT22;7323;50.848;4.334;2022-12-11T00:34:43;3.10;96.60
14475;DHT22;7323;50.848;4.334;2022-12-11T00:37:08;3.00;97.70
14475;DHT22;7323;50.848;4.334;2022-12-11T00:39:35;3.00;98.20
14475;DHT22;7323;50.848;4.334;2022-12-11T00:42:02;2.90;99.20
14475;DHT22;7323;50.848;4.334;2022-12-11T00:44:28;3.00;99.90
14475;DHT22;7323;50.848;4.334;2022-12-11T00:46:53;3.00;99.20
14475;DHT22;7323;50.848;4.334;2022-12-11T00:49:19;2.90;99.30
14475;DHT22;7323;50.848;4.334;2022-12-11T00:51:44;2.90;99.80
14475;DHT22;7323;50.848;4.334;2022-12-11T00:54:10;3.00;99.90
14475;DHT22;7323;50.848;4.334;2022-12-11T00:56:35;3.00;99.60
14475;DHT22;7323;50.848;4.334;2022-12-11T00:59:01;2.90;99.90
14475;DHT22;7323;50.848;4.334;2022-12-11T01:01:27;3.00;99.90
14475;DHT22;7323;50.848;4.334;2022-12-11T01:03:52;3.00;99.90
14475;DHT22;7323;50.848;4.334;2022-12-11T01:06:21;3.00;99.90
14475;DHT22;7323;50.848;4.334;2022-12-11T01:08:48;3.10;99.90
14475;DHT22;7323;50.848;4.334;2022-12-11T01:11:34;3.10;99.60
14475;DHT22;7323;50.848;4.334;2022-12-11T01:14:00;3.10;99.90
14475;DHT22;7323;50.848;4.334;2022-12-11T01:16:25;3.00;99.30
14475;DHT22;7323;50.848;4.334;2022-12-11T01:18:51;3.10;99.60
14475;DHT22;7323;50.848;4.334;2022-12-11T01:21:17;3.10;99.60
14475;DHT22;7323;50.848;4.334;2022-12-11T01:23:42;3.20;98.90
14475;DHT22;7323;50.848;4.334;2022-12-11T01:26:10;3.10;98.60
14475;DHT22;7323;50.848;4.334;2022-12-11T01:28:36;3.10;98.60
14475;DHT22;7323;50.848;4.334;2022-12-11T01:31:09;3.10;97.40
14475;DHT22;7323;50.848;4.334;2022-12-11T01:33:35;2.80;97.40
14475;DHT22;7323;50.848;4.334;2022-12-11T01:36:06;3.40;98.30
14475;DHT22;7323;50.848;4.334;2022-12-11T01:38:32;3.20;97.10
14475;DHT22;7323;50.848;4.334;2022-12-11T01:40:57;3.20;97.20
14475;DHT22;7323;50.848;4.334;2022-12-11T01:43:24;3.10;97.40
14475;DHT22;7323;50.848;4.334;2022-12-11T01:45:50;3.10;98.00
14475;DHT22;7323;50.848;4.334;2022-12-11T01:48:27;3.10;98.00
14475;DHT22;7323;50.848;4.334;2022-12-11T01:50:58;3.10;98.00
14475;DHT22;7323;50.848;4.334;2022-12-11T01:53:36;3.10;98.50
14475;DHT22;7323;50.848;4.334;2022-12-11T01:56:05;3.20;97.80
14475;DHT22;7323;50.848;4.334;2022-12-11T01:58:37;3.10;97.70
14475;DHT22;7323;50.848;4.334;2022-12-11T02:01:04;2.90;98.10
14475;DHT22;7323;50.848;4.334;2022-12-11T02:03:29;3.20;97.50
14475;DHT22;7323;50.848;4.334;2022-12-11T02:05:59;3.20;97.40
14475;DHT22;7323;50.848;4.334;2022-12-11T02:08:24;3.30;97.90
14475;DHT22;7323;50.848;4.334;2022-12-11T02:11:09;3.20;97.80
14475;DHT22;7323;50.848;4.334;2022-12-11T02:16:48;3.30;96.90
14475;DHT22;7323;50.848;4.334;2022-12-11T02:19:40;3.20;96.80
14475;DHT22;7323;50.848;4.334;2022-12-11T02:22:15;3.10;96.90
14475;DHT22;7323;50.848;4.334;2022-12-11T02:27:47;3.10;97.90
14475;DHT22;7323;50.848;4.334;2022-12-11T02:30:21;3.10;98.10
14475;DHT22;7323;50.848;4.334;2022-12-11T02:32:55;3.20;98.10
14475;DHT22;7323;50.848;4.334;2022-12-11T02:35:33;3.20;97.60
14475;DHT22;7323;50.848;4.334;2022-12-11T02:38:07;3.20;97.50
14475;DHT22;7323;50.848;4.334;2022-12-11T02:40:38;3.30;97.60
14475;DHT22;7323;50.848;4.334;2022-12-11T02:43:06;3.30;97.50
14475;DHT22;7323;50.848;4.334;2022-12-11T02:45:34;3.20;96.80
14475;DHT22;7323;50.848;4.334;2022-12-11T02:48:02;3.30;97.00
14475;DHT22;7323;50.848;4.334;2022-12-11T02:50:31;3.30;95.80
14475;DHT22;7323;50.848;4.334;2022-12-11T02:52:59;3.20;95.80
14475;DHT22;7323;50.848;4.334;2022-12-11T02:55:27;3.20;96.30
14475;DHT22;7323;50.848;4.334;2022-12-11T02:58:13;3.20;96.60
14475;DHT22;7323;50.848;4.334;2022-12-11T03:00:40;3.20;96.50
14475;DHT22;7323;50.848;4.334;2022-12-11T03:03:06;3.20;96.50
14475;DHT22;7323;50.848;4.334;2022-12-11T03:05:32;3.20;96.50
14475;DHT22;7323;50.848;4.334;2022-12-11T03:07:57;3.20;96.30
14475;DHT22;7323;50.848;4.334;2022-12-11T03:10:23;3.10;96.50
14475;DHT22;7323;50.848;4.334;2022-12-11T03:12:52;3.00;96.90
14475;DHT22;7323;50.848;4.334;2022-12-11T03:15:20;3.00;97.50
14475;DHT22;7323;50.848;4.334;2022-12-11T03:18:05;3.00;98.00
14475;DHT22;7323;50.848;4.334;2022-12-11T03:20:36;3.10;98.60
14475;DHT22;7323;50.848;4.334;2022-12-11T03:25:56;3.00;98.00
14475;DHT22;7323;50.848;4.334;2022-12-11T03:28:31;3.10;98.60
14475;DHT22;7323;50.848;4.334;2022-12-11T03:31:02;3.00;98.40
14475;DHT22;7323;50.848;4.334;2022-12-11T03:33:37;2.90;99.00
14475;DHT22;7323;50.848;4.334;2022-12-11T03:36:08;3.00;99.90
14475;DHT22;7323;50.848;4.334;2022-12-11T03:38:46;3.00;99.90
14475;DHT22;7323;50.848;4.334;2022-12-11T03:41:19;3.00;99.90
14475;DHT22;7323;50.848;4.334;2022-12-11T03:43:47;3.00;99.90
14475;DHT22;7323;50.848;4.334;2022-12-11T03:46:15;3.00;99.90
14475;DHT22;7323;50.848;4.334;2022-12-11T03:48:43;3.00;99.80
14475;DHT22;7323;50.848;4.334;2022-12-11T03:51:11;3.00;99.90
14475;DHT22;7323;50.848;4.334;2022-12-11T03:53:38;2.90;99.90
14475;DHT22;7323;50.848;4.334;2022-12-11T03:56:05;2.90;99.90
14475;DHT22;7323;50.848;4.334;2022-12-11T03:58:31;3.00;99.90
14475;DHT22;7323;50.848;4.334;2022-12-11T04:00:57;3.10;99.90
14475;DHT22;7323;50.848;4.334;2022-12-11T04:03:23;3.10;99.90
14475;DHT22;7323;50.848;4.334;2022-12-11T04:05:54;3.10;99.90
14475;DHT22;7323;50.848;4.334;2022-12-11T04:08:20;3.20;99.90
14475;DHT22;7323;50.848;4.334;2022-12-11T04:10:47;3.00;99.50
14475;DHT22;7323;50.848;4.334;2022-12-11T04:13:13;3.00;99.80
14475;DHT22;7323;50.848;4.334;2022-12-11T04:15:39;2.90;99.90
14475;DHT22;7323;50.848;4.334;2022-12-11T04:18:06;3.10;99.90
14475;DHT22;7323;50.848;4.334;2022-12-11T04:20:54;3.00;99.90
14475;DHT22;7323;50.848;4.334;2022-12-11T04:23:38;3.00;99.90
14475;DHT22;7323;50.848;4.334;2022-12-11T04:26:22;3.00;99.90
14475;DHT22;7323;50.848;4.334;2022-12-11T04:28:48;3.10;99.90
14475;DHT22;7323;50.848;4.334;2022-12-11T04:31:17;3.00;99.90
14475;DHT22;7323;50.848;4.334;2022-12-11T04:33:43;3.00;99.90
14475;DHT22;7323;50.848;4.334;2022-12-11T04:36:10;2.90;99.90
14475;DHT22;7323;50.848;4.334;2022-12-11T04:38:36;2.90;99.90
14475;DHT22;7323;50.848;4.334;2022-12-11T04:41:08;2.90;99.90
14475;DHT22;7323;50.848;4.334;2022-12-11T04:43:35;3.00;99.90
14475;DHT22;7323;50.848;4.334;2022-12-11T04:46:15;3.00;99.90
14475;DHT22;7323;50.848;4.334;2022-12-11T04:48:43;3.00;99.90
14475;DHT22;7323;50.848;4.334;2022-12-11T04:51:13;3.00;99.90
14475;DHT22;7323;50.848;4.334;2022-12-11T04:53:38;3.00;99.90
14475;DHT22;7323;50.848;4.334;2022-12-11T04:56:06;2.90;99.90
14475;DHT22;7323;50.848;4.334;2022-12-11T04:58:33;2.90;99.90
14475;DHT22;7323;50.848;4.334;2022-12-11T05:01:06;2.90;99.90
14475;DHT22;7323;50.848;4.334;2022-12-11T05:03:34;3.00;99.90
14475;DHT22;7323;50.848;4.334;2022-12-11T05:06:00;2.90;99.90
14475;DHT22;7323;50.848;4.334;2022-12-11T05:08:34;2.90;99.90
14475;DHT22;7323;50.848;4.334;2022-12-11T05:11:08;2.90;99.90
14475;DHT22;7323;50.848;4.334;2022-12-11T05:13:34;2.80;99.90
14475;DHT22;7323;50.848;4.334;2022-12-11T05:16:03;2.80;99.90
14475;DHT22;7323;50.848;4.334;2022-12-11T05:18:29;2.80;99.90
14475;DHT22;7323;50.848;4.334;2022-12-11T05:21:03;3.00;99.90
14475;DHT22;7323;50.848;4.334;2022-12-11T05:23:29;2.90;99.60
14475;DHT22;7323;50.848;4.334;2022-12-11T05:26:00;2.90;99.90
14475;DHT22;7323;50.848;4.334;2022-12-11T05:28:28;3.00;99.90
14475;DHT22;7323;50.848;4.334;2022-12-11T05:30:58;3.00;99.90
14475;DHT22;7323;50.848;4.334;2022-12-11T05:33:24;3.10;99.40
14475;DHT22;7323;50.848;4.334;2022-12-11T05:35:50;3.10;99.10
14475;DHT22;7323;50.848;4.334;2022-12-11T05:38:16;3.10;98.90
14475;DHT22;7323;50.848;4.334;2022-12-11T05:40:41;3.00;98.30
14475;DHT22;7323;50.848;4.334;2022-12-11T05:43:08;3.10;98.50
14475;DHT22;7323;50.848;4.334;2022-12-11T05:45:33;3.00;97.90
14475;DHT22;7323;50.848;4.334;2022-12-11T05:47:59;3.00;97.70
14475;DHT22;7323;50.848;4.334;2022-12-11T05:50:25;2.90;98.00
14475;DHT22;7323;50.848;4.334;2022-12-11T05:52:51;2.90;98.20
14475;DHT22;7323;50.848;4.334;2022-12-11T05:55:16;2.90;98.60
14475;DHT22;7323;50.848;4.334;2022-12-11T05:57:42;2.90;98.70
14475;DHT22;7323;50.848;4.334;2022-12-11T06:00:11;2.80;98.70
14475;DHT22;7323;50.848;4.334;2022-12-11T06:02:37;2.80;98.70
14475;DHT22;7323;50.848;4.334;2022-12-11T06:05:03;2.80;98.90
14475;DHT22;7323;50.848;4.334;2022-12-11T06:07:28;2.80;99.00
14475;DHT22;7323;50.848;4.334;2022-12-11T06:09:54;2.90;99.00
14475;DHT22;7323;50.848;4.334;2022-12-11T06:12:20;2.90;99.00
14475;DHT22;7323;50.848;4.334;2022-12-11T06:14:45;2.80;98.70
14475;DHT22;7323;50.848;4.334;2022-12-11T06:17:11;2.80;99.00
14475;DHT22;7323;50.848;4.334;2022-12-11T06:19:36;2.70;99.10
14475;DHT22;7323;50.848;4.334;2022-12-11T06:22:03;2.80;99.50
14475;DHT22;7323;50.848;4.334;2022-12-11T06:24:28;2.80;99.50
14475;DHT22;7323;50.848;4.334;2022-12-11T06:26:54;2.70;98.90
14475;DHT22;7323;50.848;4.334;2022-12-11T06:29:19;2.70;99.00
14475;DHT22;7323;50.848;4.334;2022-12-11T06:31:45;2.70;99.10
14475;DHT22;7323;50.848;4.334;2022-12-11T06:34:11;2.70;99.30
14475;DHT22;7323;50.848;4.334;2022-12-11T06:36:37;2.90;99.40
14475;DHT22;7323;50.848;4.334;2022-12-11T06:39:03;3.00;98.20
14475;DHT22;7323;50.848;4.334;2022-12-11T06:41:29;3.00;97.20
14475;DHT22;7323;50.848;4.334;2022-12-11T06:43:54;3.00;97.20
14475;DHT22;7323;50.848;4.334;2022-12-11T06:46:20;2.90;97.00
14475;DHT22;7323;50.848;4.334;2022-12-11T06:48:47;3.10;97.60
14475;DHT22;7323;50.848;4.334;2022-12-11T06:51:17;3.10;96.40
14475;DHT22;7323;50.848;4.334;2022-12-11T06:53:44;3.10;95.20
14475;DHT22;7323;50.848;4.334;2022-12-11T06:56:14;3.00;94.50
14475;DHT22;7323;50.848;4.334;2022-12-11T06:58:41;2.90;95.10
14475;DHT22;7323;50.848;4.334;2022-12-11T07:01:21;2.90;96.00
14475;DHT22;7323;50.848;4.334;2022-12-11T07:03:48;2.80;95.60
14475;DHT22;7323;50.848;4.334;2022-12-11T07:06:24;2.80;97.00
14475;DHT22;7323;50.848;4.334;2022-12-11T07:08:50;2.70;97.30
14475;DHT22;7323;50.848;4.334;2022-12-11T07:11:17;2.70;97.80
14475;DHT22;7323;50.848;4.334;2022-12-11T07:13:43;2.60;97.10
14475;DHT22;7323;50.848;4.334;2022-12-11T07:16:12;2.80;98.10
14475;DHT22;7323;50.848;4.334;2022-12-11T07:18:44;2.90;95.90
14475;DHT22;7323;50.848;4.334;2022-12-11T07:21:12;2.90;94.50
14475;DHT22;7323;50.848;4.334;2022-12-11T07:23:38;2.80;94.20
14475;DHT22;7323;50.848;4.334;2022-12-11T07:26:12;2.80;93.40
14475;DHT22;7323;50.848;4.334;2022-12-11T07:28:44;2.80;94.50
14475;DHT22;7323;50.848;4.334;2022-12-11T07:31:12;2.90;94.10
14475;DHT22;7323;50.848;4.334;2022-12-11T07:33:39;3.00;93.00
14475;DHT22;7323;50.848;4.334;2022-12-11T07:36:09;3.00;93.20
14475;DHT22;7323;50.848;4.334;2022-12-11T07:38:35;3.10;92.10
14475;DHT22;7323;50.848;4.334;2022-12-11T07:41:08;3.10;91.20
14475;DHT22;7323;50.848;4.334;2022-12-11T07:43:38;3.00;91.30
14475;DHT22;7323;50.848;4.334;2022-12-11T07:46:07;2.90;91.30
14475;DHT22;7323;50.848;4.334;2022-12-11T07:48:38;2.80;92.70
14475;DHT22;7323;50.848;4.334;2022-12-11T07:53:47;2.80;93.60
14475;DHT22;7323;50.848;4.334;2022-12-11T07:56:14;3.00;93.10
14475;DHT22;7323;50.848;4.334;2022-12-11T07:58:41;2.80;92.40
14475;DHT22;7323;50.848;4.334;2022-12-11T08:01:17;2.60;93.10
14475;DHT22;7323;50.848;4.334;2022-12-11T08:03:44;2.60;94.80
14475;DHT22;7323;50.848;4.334;2022-12-11T08:06:11;2.80;94.80
14475;DHT22;7323;50.848;4.334;2022-12-11T08:08:37;2.90;93.90
14475;DHT22;7323;50.848;4.334;2022-12-11T08:11:04;2.90;93.90
14475;DHT22;7323;50.848;4.334;2022-12-11T08:13:30;3.00;91.50
14475;DHT22;7323;50.848;4.334;2022-12-11T08:15:56;3.00;90.20
14475;DHT22;7323;50.848;4.334;2022-12-11T08:18:22;2.90;90.10
14475;DHT22;7323;50.848;4.334;2022-12-11T08:20:48;2.80;91.50
14475;DHT22;7323;50.848;4.334;2022-12-11T08:23:13;2.80;92.10
14475;DHT22;7323;50.848;4.334;2022-12-11T08:25:39;2.80;93.00
14475;DHT22;7323;50.848;4.334;2022-12-11T08:28:05;2.70;92.70
14475;DHT22;7323;50.848;4.334;2022-12-11T08:30:31;2.70;92.90
14475;DHT22;7323;50.848;4.334;2022-12-11T08:32:57;2.90;93.50
14475;DHT22;7323;50.848;4.334;2022-12-11T08:35:24;2.90;92.20
14475;DHT22;7323;50.848;4.334;2022-12-11T08:37:50;2.80;92.40
14475;DHT22;7323;50.848;4.334;2022-12-11T08:40:16;2.70;92.80
14475;DHT22;7323;50.848;4.334;2022-12-11T08:42:41;2.80;93.30
14475;DHT22;7323;50.848;4.334;2022-12-11T08:45:08;2.80;93.10
14475;DHT22;7323;50.848;4.334;2022-12-11T08:47:34;2.80;93.30
14475;DHT22;7323;50.848;4.334;2022-12-11T08:49:59;2.80;93.30
14475;DHT22;7323;50.848;4.334;2022-12-11T08:52:25;2.70;93.10
14475;DHT22;7323;50.848;4.334;2022-12-11T08:54:50;2.80;92.90
14475;DHT22;7323;50.848;4.334;2022-12-11T08:57:16;2.90;92.20
14475;DHT22;7323;50.848;4.334;2022-12-11T08:59:42;3.00;91.40
14475;DHT22;7323;50.848;4.334;2022-12-11T09:02:10;2.90;90.90
14475;DHT22;7323;50.848;4.334;2022-12-11T09:04:37;2.90;91.50
14475;DHT22;7323;50.848;4.334;2022-12-11T09:07:02;3.00;91.50
14475;DHT22;7323;50.848;4.334;2022-12-11T09:09:28;3.10;90.80
14475;DHT22;7323;50.848;4.334;2022-12-11T09:11:54;3.10;90.00
14475;DHT22;7323;50.848;4.334;2022-12-11T09:14:20;3.00;89.00
14475;DHT22;7323;50.848;4.334;2022-12-11T09:16:46;3.00;86.40
14475;DHT22;7323;50.848;4.334;2022-12-11T09:19:13;3.00;85.70
14475;DHT22;7323;50.848;4.334;2022-12-11T09:21:40;3.20;82.20
14475;DHT22;7323;50.848;4.334;2022-12-11T09:24:12;3.20;80.50
14475;DHT22;7323;50.848;4.334;2022-12-11T09:26:48;3.40;79.90
14475;DHT22;7323;50.848;4.334;2022-12-11T09:29:13;3.40;77.70
14475;DHT22;7323;50.848;4.334;2022-12-11T09:31:39;3.30;76.10
14475;DHT22;7323;50.848;4.334;2022-12-11T09:34:07;3.40;75.90
14475;DHT22;7323;50.848;4.334;2022-12-11T09:36:34;3.30;72.80
14475;DHT22;7323;50.848;4.334;2022-12-11T09:39:01;3.20;74.20
14475;DHT22;7323;50.848;4.334;2022-12-11T09:46:53;3.30;76.00
14475;DHT22;7323;50.848;4.334;2022-12-11T09:49:36;3.30;75.40
14475;DHT22;7323;50.848;4.334;2022-12-11T09:52:16;3.20;76.90
14475;DHT22;7323;50.848;4.334;2022-12-11T09:54:53;3.30;78.10
14475;DHT22;7323;50.848;4.334;2022-12-11T10:00:11;3.50;77.80
14475;DHT22;7323;50.848;4.334;2022-12-11T10:03:09;3.50;76.10
14475;DHT22;7323;50.848;4.334;2022-12-11T10:08:44;3.40;75.90
14475;DHT22;7323;50.848;4.334;2022-12-11T10:14:31;3.50;77.70
14475;DHT22;7323;50.848;4.334;2022-12-11T10:17:21;3.60;77.00
14475;DHT22;7323;50.848;4.334;2022-12-11T10:19:48;3.50;75.80
14475;DHT22;7323;50.848;4.334;2022-12-11T10:22:25;3.20;76.10
14475;DHT22;7323;50.848;4.334;2022-12-11T10:25:00;3.40;77.30
14475;DHT22;7323;50.848;4.334;2022-12-11T10:27:32;3.60;76.70
14475;DHT22;7323;50.848;4.334;2022-12-11T10:30:29;3.40;75.30
14475;DHT22;7323;50.848;4.334;2022-12-11T10:33:21;3.40;76.90
14475;DHT22;7323;50.848;4.334;2022-12-11T10:35:55;3.50;76.10
14475;DHT22;7323;50.848;4.334;2022-12-11T10:38:26;3.50;73.10
14475;DHT22;7323;50.848;4.334;2022-12-11T10:41:37;3.50;72.70
14475;DHT22;7323;50.848;4.334;2022-12-11T10:47:20;3.40;71.50
14475;DHT22;7323;50.848;4.334;2022-12-11T10:49:57;3.50;67.80
14475;DHT22;7323;50.848;4.334;2022-12-11T10:52:26;3.40;68.60
14475;DHT22;7323;50.848;4.334;2022-12-11T10:54:59;3.50;69.00
14475;DHT22;7323;50.848;4.334;2022-12-11T10:57:32;3.40;68.80
14475;DHT22;7323;50.848;4.334;2022-12-11T10:59:59;3.70;65.40
14475;DHT22;7323;50.848;4.334;2022-12-11T11:02:38;3.80;60.80
14475;DHT22;7323;50.848;4.334;2022-12-11T11:05:16;3.80;60.60
14475;DHT22;7323;50.848;4.334;2022-12-11T11:07:42;3.80;59.60
14475;DHT22;7323;50.848;4.334;2022-12-11T11:12:42;3.90;55.30
14475;DHT22;7323;50.848;4.334;2022-12-11T11:15:17;4.10;53.80
14475;DHT22;7323;50.848;4.334;2022-12-11T11:17:55;4.00;51.00
14475;DHT22;7323;50.848;4.334;2022-12-11T11:20:25;4.00;48.70
14475;DHT22;7323;50.848;4.334;2022-12-11T11:22:56;4.00;50.50
14475;DHT22;7323;50.848;4.334;2022-12-11T11:25:25;4.20;50.20
14475;DHT22;7323;50.848;4.334;2022-12-11T11:28:03;4.30;45.70
14475;DHT22;7323;50.848;4.334;2022-12-11T11:30:34;4.40;45.20
14475;DHT22;7323;50.848;4.334;2022-12-11T11:33:16;4.40;41.20
14475;DHT22;7323;50.848;4.334;2022-12-11T11:41:16;4.80;36.20
14475;DHT22;7323;50.848;4.334;2022-12-11T11:46:22;4.60;36.50
14475;DHT22;7323;50.848;4.334;2022-12-11T11:52:12;4.60;39.80
14475;DHT22;7323;50.848;4.334;2022-12-11T11:54:58;4.60;38.40
14475;DHT22;7323;50.848;4.334;2022-12-11T11:57:49;4.80;33.90
14475;DHT22;7323;50.848;4.334;2022-12-11T12:00:24;4.70;32.70
14475;DHT22;7323;50.848;4.334;2022-12-11T12:02:55;4.60;33.70
14475;DHT22;7323;50.848;4.334;2022-12-11T12:05:29;4.60;36.90
14475;DHT22;7323;50.848;4.334;2022-12-11T12:08:28;4.70;37.60
14475;DHT22;7323;50.848;4.334;2022-12-11T12:19:31;4.30;44.60
14475;DHT22;7323;50.848;4.334;2022-12-11T12:22:13;4.30;45.80
14475;DHT22;7323;50.848;4.334;2022-12-11T12:25:09;4.50;43.00
14475;DHT22;7323;50.848;4.334;2022-12-11T12:30:26;4.30;44.20
14475;DHT22;7323;50.848;4.334;2022-12-11T12:33:17;4.20;45.50
14475;DHT22;7323;50.848;4.334;2022-12-11T12:36:10;4.20;47.60
14475;DHT22;7323;50.848;4.334;2022-12-11T12:49:42;3.70;62.70
14475;DHT22;7323;50.848;4.334;2022-12-11T12:52:32;3.60;67.10
14475;DHT22;7323;50.848;4.334;2022-12-11T12:55:02;3.50;72.40
14475;DHT22;7323;50.848;4.334;2022-12-11T12:57:55;3.50;76.00
14475;DHT22;7323;50.848;4.334;2022-12-11T13:00:41;3.40;79.10
14475;DHT22;7323;50.848;4.334;2022-12-11T13:03:29;3.50;82.00
14475;DHT22;7323;50.848;4.334;2022-12-11T13:06:03;3.40;82.70
14475;DHT22;7323;50.848;4.334;2022-12-11T13:08:46;3.40;84.30
14475;DHT22;7323;50.848;4.334;2022-12-11T13:11:16;3.40;83.70
14475;DHT22;7323;50.848;4.334;2022-12-11T13:13:46;3.60;82.80
14475;DHT22;7323;50.848;4.334;2022-12-11T13:18:47;3.70;82.80
14475;DHT22;7323;50.848;4.334;2022-12-11T13:23:51;3.70;79.60
14475;DHT22;7323;50.848;4.334;2022-12-11T13:26:28;3.70;76.90
14475;DHT22;7323;50.848;4.334;2022-12-11T13:29:00;3.70;78.10
14475;DHT22;7323;50.848;4.334;2022-12-11T13:31:35;3.80;77.40
14475;DHT22;7323;50.848;4.334;2022-12-11T13:34:21;3.80;79.80
14475;DHT22;7323;50.848;4.334;2022-12-11T13:36:52;3.70;81.10
14475;DHT22;7323;50.848;4.334;2022-12-11T13:39:30;3.80;80.30
14475;DHT22;7323;50.848;4.334;2022-12-11T13:42:32;3.80;78.70
14475;DHT22;7323;50.848;4.334;2022-12-11T13:45:18;3.70;79.60
14475;DHT22;7323;50.848;4.334;2022-12-11T13:47:46;3.60;83.60
14475;DHT22;7323;50.848;4.334;2022-12-11T13:50:23;3.70;87.40
14475;DHT22;7323;50.848;4.334;2022-12-11T13:52:57;3.60;89.30
14475;DHT22;7323;50.848;4.334;2022-12-11T13:57:50;3.60;92.00
14475;DHT22;7323;50.848;4.334;2022-12-11T14:00:25;3.50;93.20
14475;DHT22;7323;50.848;4.334;2022-12-11T14:02:52;3.60;94.20
14475;DHT22;7323;50.848;4.334;2022-12-11T14:05:19;3.60;95.20
14475;DHT22;7323;50.848;4.334;2022-12-11T14:07:54;3.80;95.20
14475;DHT22;7323;50.848;4.334;2022-12-11T14:10:25;4.00;95.30
14475;DHT22;7323;50.848;4.334;2022-12-11T14:13:22;4.20;94.50
14475;DHT22;7323;50.848;4.334;2022-12-11T14:15:51;4.30;93.30
14475;DHT22;7323;50.848;4.334;2022-12-11T14:18:21;4.30;92.40
14475;DHT22;7323;50.848;4.334;2022-12-11T14:20:54;4.40;91.70
14475;DHT22;7323;50.848;4.334;2022-12-11T14:23:24;4.50;90.50
14475;DHT22;7323;50.848;4.334;2022-12-11T14:25:54;4.60;88.70
14475;DHT22;7323;50.848;4.334;2022-12-11T14:28:22;4.60;87.20
14475;DHT22;7323;50.848;4.334;2022-12-11T14:30:54;4.60;87.10
14475;DHT22;7323;50.848;4.334;2022-12-11T14:33:22;4.70;86.00
14475;DHT22;7323;50.848;4.334;2022-12-11T14:35:51;4.60;83.30
14475;DHT22;7323;50.848;4.334;2022-12-11T14:38:23;4.20;82.00
14475;DHT22;7323;50.848;4.334;2022-12-11T14:40:57;4.00;86.60
14475;DHT22;7323;50.848;4.334;2022-12-11T14:43:29;4.00;88.00
14475;DHT22;7323;50.848;4.334;2022-12-11T14:46:00;4.10;89.40
14475;DHT22;7323;50.848;4.334;2022-12-11T14:48:35;4.10;88.30
14475;DHT22;7323;50.848;4.334;2022-12-11T14:51:04;4.10;87.90
14475;DHT22;7323;50.848;4.334;2022-12-11T14:53:41;4.20;86.30
14475;DHT22;7323;50.848;4.334;2022-12-11T14:56:16;4.10;85.80
14475;DHT22;7323;50.848;4.334;2022-12-11T14:58:50;4.00;85.60
14475;DHT22;7323;50.848;4.334;2022-12-11T15:01:29;4.00;84.10
14475;DHT22;7323;50.848;4.334;2022-12-11T15:06:44;3.80;84.80
14475;DHT22;7323;50.848;4.334;2022-12-11T15:09:24;3.80;84.50
14475;DHT22;7323;50.848;4.334;2022-12-11T15:11:50;3.70;81.40
14475;DHT22;7323;50.848;4.334;2022-12-11T15:14:18;3.60;81.80
14475;DHT22;7323;50.848;4.334;2022-12-11T15:16:47;3.80;82.70
14475;DHT22;7323;50.848;4.334;2022-12-11T15:19:33;3.90;77.90
14475;DHT22;7323;50.848;4.334;2022-12-11T15:22:07;3.80;74.80
14475;DHT22;7323;50.848;4.334;2022-12-11T15:24:42;3.80;75.70
14475;DHT22;7323;50.848;4.334;2022-12-11T15:27:33;3.80;75.00
14475;DHT22;7323;50.848;4.334;2022-12-11T15:30:13;3.90;75.60
14475;DHT22;7323;50.848;4.334;2022-12-11T15:32:40;4.20;71.30
14475;DHT22;7323;50.848;4.334;2022-12-11T15:35:22;4.00;67.10
14475;DHT22;7323;50.848;4.334;2022-12-11T15:37:54;3.90;70.00
14475;DHT22;7323;50.848;4.334;2022-12-11T15:40:22;3.80;70.30
14475;DHT22;7323;50.848;4.334;2022-12-11T15:42:48;3.80;71.80
14475;DHT22;7323;50.848;4.334;2022-12-11T15:45:16;3.90;72.40
14475;DHT22;7323;50.848;4.334;2022-12-11T15:47:42;3.80;72.70
14475;DHT22;7323;50.848;4.334;2022-12-11T15:50:22;4.00;73.00
14475;DHT22;7323;50.848;4.334;2022-12-11T15:52:50;3.90;73.40
14475;DHT22;7323;50.848;4.334;2022-12-11T15:55:19;3.90;71.90
14475;DHT22;7323;50.848;4.334;2022-12-11T15:57:56;4.00;71.80
14475;DHT22;7323;50.848;4.334;2022-12-11T16:00:22;4.00;70.40
14475;DHT22;7323;50.848;4.334;2022-12-11T16:02:49;4.00;69.80
14475;DHT22;7323;50.848;4.334;2022-12-11T16:05:15;4.00;68.30
14475;DHT22;7323;50.848;4.334;2022-12-11T16:07:41;4.00;66.90
14475;DHT22;7323;50.848;4.334;2022-12-11T16:10:12;3.90;65.60
14475;DHT22;7323;50.848;4.334;2022-12-11T16:12:42;3.90;65.70
14475;DHT22;7323;50.848;4.334;2022-12-11T16:15:09;3.90;65.00
14475;DHT22;7323;50.848;4.334;2022-12-11T16:17:35;3.90;65.20
14475;DHT22;7323;50.848;4.334;2022-12-11T16:20:01;3.80;65.10
14475;DHT22;7323;50.848;4.334;2022-12-11T16:22:27;3.80;64.70
14475;DHT22;7323;50.848;4.334;2022-12-11T16:24:55;3.90;64.70
14475;DHT22;7323;50.848;4.334;2022-12-11T16:27:21;4.00;63.50
14475;DHT22;7323;50.848;4.334;2022-12-11T16:29:47;4.10;61.30
14475;DHT22;7323;50.848;4.334;2022-12-11T16:32:13;4.20;57.80
14475;DHT22;7323;50.848;4.334;2022-12-11T16:34:39;4.20;56.40
14475;DHT22;7323;50.848;4.334;2022-12-11T16:37:07;4.30;55.40
14475;DHT22;7323;50.848;4.334;2022-12-11T16:39:34;4.30;55.20
14475;DHT22;7323;50.848;4.334;2022-12-11T16:41:59;4.30;52.60
14475;DHT22;7323;50.848;4.334;2022-12-11T16:44:26;4.30;53.60
14475;DHT22;7323;50.848;4.334;2022-12-11T16:46:53;4.40;53.20
14475;DHT22;7323;50.848;4.334;2022-12-11T16:49:21;4.40;52.60
14475;DHT22;7323;50.848;4.334;2022-12-11T16:51:50;4.50;51.20
14475;DHT22;7323;50.848;4.334;2022-12-11T16:54:17;4.50;49.20
14475;DHT22;7323;50.848;4.334;2022-12-11T16:56:43;4.30;50.10
14475;DHT22;7323;50.848;4.334;2022-12-11T16:59:09;4.20;51.50
14475;DHT22;7323;50.848;4.334;2022-12-11T17:01:37;4.10;53.00
14475;DHT22;7323;50.848;4.334;2022-12-11T17:04:03;4.10;54.20
14475;DHT22;7323;50.848;4.334;2022-12-11T17:06:29;4.00;56.10
14475;DHT22;7323;50.848;4.334;2022-12-11T17:08:54;3.90;58.10
14475;DHT22;7323;50.848;4.334;2022-12-11T17:11:22;3.90;58.10
14475;DHT22;7323;50.848;4.334;2022-12-11T17:13:57;3.80;58.90
14475;DHT22;7323;50.848;4.334;2022-12-11T17:16:24;3.80;61.00
14475;DHT22;7323;50.848;4.334;2022-12-11T17:18:51;3.70;65.00
14475;DHT22;7323;50.848;4.334;2022-12-11T17:21:18;3.50;64.00
14475;DHT22;7323;50.848;4.334;2022-12-11T17:23:47;3.40;66.10
14475;DHT22;7323;50.848;4.334;2022-12-11T17:26:15;3.30;66.90
14475;DHT22;7323;50.848;4.334;2022-12-11T17:28:41;3.20;67.80
14475;DHT22;7323;50.848;4.334;2022-12-11T17:31:12;3.20;68.90
14475;DHT22;7323;50.848;4.334;2022-12-11T17:33:38;3.20;69.50
14475;DHT22;7323;50.848;4.334;2022-12-11T17:36:06;3.10;70.70
14475;DHT22;7323;50.848;4.334;2022-12-11T17:38:32;3.10;71.80